Time;durP1;ratioP1;P1;durP2;ratioP2;P2;SDS_P1;SDS_P2;PMS_P1;PMS_P2;Temp;Humidity;BMP_temperature;BMP_pressure;BME280_temperature;BME280_humidity;BME280_pressure;Samples;Min_cycle;Max_cycle;Signal;HPM_P1;HPM_P2
2021/07/02 00:00:12;;;;;;;4.97;3.00;;;17.70;99.90;;;;;;5071392;28;20178;-77
2021/07/02 00:02:41;;;;;;;4.20;3.43;;;17.80;99.90;;;;;;5071042;28;20198;-78
2021/07/02 00:05:08;;;;;;;3.90;3.50;;;17.70;99.90;;;;;;5071518;28;20411;-77
2021/07/02 00:07:34;;;;;;;4.50;3.00;;;17.70;99.90;;;;;;5071738;28;20900;-77
2021/07/02 00:09:59;;;;;;;6.53;4.00;;;17.70;99.90;;;;;;5071473;28;20526;-77
2021/07/02 00:12:25;;;;;;;10.43;4.60;;;17.70;99.90;;;;;;5071048;28;20755;-77
2021/07/02 00:14:51;;;;;;;6.03;4.33;;;17.70;99.90;;;;;;5071570;28;20568;-77
2021/07/02 00:17:16;;;;;;;6.00;5.03;;;17.70;99.90;;;;;;5071270;28;20168;-77
2021/07/02 00:19:42;;;;;;;12.13;5.80;;;17.70;99.90;;;;;;5071291;28;20189;-76
2021/07/02 00:22:07;;;;;;;9.67;4.77;;;17.70;99.90;;;;;;5070798;28;20212;-77
2021/07/02 00:24:33;;;;;;;6.50;4.40;;;17.70;99.90;;;;;;5070986;28;20285;-76
2021/07/02 00:26:58;;;;;;;9.10;5.07;;;17.70;99.90;;;;;;5071067;28;20268;-77
2021/07/02 00:29:24;;;;;;;7.87;5.70;;;17.80;99.90;;;;;;5071172;28;20536;-77
2021/07/02 00:31:50;;;;;;;7.57;5.03;;;17.70;99.90;;;;;;5069665;28;20693;-77
2021/07/02 00:34:15;;;;;;;8.27;5.47;;;17.70;99.90;;;;;;5073533;28;20183;-76
2021/07/02 00:36:44;;;;;;;7.83;5.10;;;17.70;99.90;;;;;;5075310;28;20425;-76
2021/07/02 00:39:10;;;;;;;9.90;5.27;;;17.70;99.90;;;;;;5074757;28;20190;-77
2021/07/02 00:41:35;;;;;;;7.10;4.50;;;17.70;99.90;;;;;;5074526;28;20411;-77
2021/07/02 00:44:01;;;;;;;10.90;6.90;;;17.70;99.90;;;;;;5074723;28;20192;-76
2021/07/02 00:46:27;;;;;;;9.20;5.87;;;17.70;99.90;;;;;;5074537;28;20431;-76
2021/07/02 00:48:53;;;;;;;9.53;5.70;;;17.70;99.90;;;;;;5073573;28;20415;-77
2021/07/02 00:51:20;;;;;;;10.60;5.80;;;17.80;99.90;;;;;;5074542;28;20165;-77
2021/07/02 00:53:46;;;;;;;9.27;5.67;;;17.80;99.90;;;;;;5074413;28;20435;-77
2021/07/02 00:56:15;;;;;;;8.80;5.70;;;17.80;99.90;;;;;;5074407;28;20421;-76
2021/07/02 00:58:40;;;;;;;12.73;6.80;;;17.70;99.90;;;;;;5074283;28;20787;-77
2021/07/02 01:01:13;;;;;;;10.03;5.70;;;17.80;99.90;;;;;;5073120;28;20407;-78
2021/07/02 01:03:39;;;;;;;14.37;7.00;;;17.70;99.90;;;;;;5074511;28;20255;-77
2021/07/02 01:06:04;;;;;;;12.73;8.13;;;17.70;99.90;;;;;;5074453;28;20412;-76
2021/07/02 01:08:30;;;;;;;16.37;7.30;;;17.70;99.90;;;;;;5074153;28;20641;-77
2021/07/02 01:10:55;;;;;;;13.97;6.57;;;17.70;99.90;;;;;;5074238;28;20174;-77
2021/07/02 01:13:21;;;;;;;8.77;6.27;;;17.70;99.90;;;;;;5074474;28;20644;-77
2021/07/02 01:15:55;;;;;;;13.10;6.70;;;17.70;99.90;;;;;;5073051;28;20201;-76
2021/07/02 01:18:24;;;;;;;9.83;6.17;;;17.70;99.90;;;;;;5074106;28;20757;-78
2021/07/02 01:20:52;;;;;;;11.17;6.73;;;17.80;99.90;;;;;;5073905;28;20757;-75
2021/07/02 01:23:18;;;;;;;9.63;6.40;;;17.80;99.90;;;;;;5072403;28;20865;-76
2021/07/02 01:25:45;;;;;;;12.00;7.70;;;17.80;99.90;;;;;;5074165;28;20413;-77
2021/07/02 01:28:12;;;;;;;15.60;7.80;;;17.80;99.90;;;;;;5074068;28;20412;-77
2021/07/02 01:30:38;;;;;;;13.47;7.40;;;17.70;99.90;;;;;;5074375;28;20424;-77
2021/07/02 01:33:04;;;;;;;11.43;7.47;;;17.70;99.90;;;;;;5074081;28;20431;-77
2021/07/02 01:35:29;;;;;;;15.70;8.03;;;17.70;99.90;;;;;;5074093;28;20470;-76
2021/07/02 01:37:55;;;;;;;11.93;6.43;;;17.60;99.90;;;;;;5072375;28;20180;-77
2021/07/02 01:40:21;;;;;;;14.17;7.07;;;17.70;99.90;;;;;;5073681;28;20548;-77
2021/07/02 01:42:47;;;;;;;13.37;8.77;;;17.70;99.90;;;;;;5073326;28;20214;-77
2021/07/02 01:45:13;;;;;;;13.47;7.20;;;17.70;99.90;;;;;;5071264;28;20173;-76
2021/07/02 01:47:38;;;;;;;15.80;7.57;;;17.70;99.90;;;;;;5073487;28;20462;-76
2021/07/02 01:50:05;;;;;;;13.80;7.97;;;17.70;99.90;;;;;;5073459;28;20178;-77
2021/07/02 01:52:30;;;;;;;11.97;6.80;;;17.80;99.90;;;;;;5073186;28;20179;-76
2021/07/02 01:54:56;;;;;;;12.80;8.17;;;17.80;99.90;;;;;;5073300;28;20819;-77
2021/07/02 01:57:26;;;;;;;16.70;7.73;;;17.70;99.90;;;;;;5073813;28;20182;-77
2021/07/02 01:59:52;;;;;;;17.03;8.47;;;17.70;99.90;;;;;;5073771;28;20153;-77
2021/07/02 02:02:19;;;;;;;20.33;8.57;;;17.80;99.90;;;;;;5073104;28;20456;-77
2021/07/02 02:04:45;;;;;;;21.37;8.60;;;17.70;99.90;;;;;;5071954;28;20516;-76
2021/07/02 02:07:10;;;;;;;16.30;8.17;;;17.70;99.90;;;;;;5073290;28;20411;-77
2021/07/02 02:09:36;;;;;;;19.00;8.67;;;17.70;99.90;;;;;;5071976;28;20500;-77
2021/07/02 02:12:03;;;;;;;14.33;8.20;;;17.70;99.90;;;;;;5073430;28;20242;-77
2021/07/02 02:14:28;;;;;;;16.57;8.00;;;17.80;99.90;;;;;;5071945;28;20451;-76
2021/07/02 02:16:54;;;;;;;14.83;8.07;;;17.80;99.90;;;;;;5073404;28;20460;-76
2021/07/02 02:19:21;;;;;;;18.13;8.47;;;17.80;99.90;;;;;;5073329;28;20190;-77
2021/07/02 02:21:46;;;;;;;15.30;8.43;;;17.80;99.90;;;;;;5073860;28;20518;-77
2021/07/02 02:24:12;;;;;;;17.57;9.33;;;17.80;99.90;;;;;;5073149;28;20537;-77
2021/07/02 02:26:38;;;;;;;12.90;8.20;;;17.80;99.90;;;;;;5073567;28;20170;-77
2021/07/02 02:29:03;;;;;;;16.77;8.37;;;17.80;99.90;;;;;;5072834;28;20258;-78
2021/07/02 02:31:29;;;;;;;16.30;8.70;;;17.90;99.90;;;;;;5072770;28;20635;-77
2021/07/02 02:33:55;;;;;;;20.30;10.10;;;17.80;99.90;;;;;;5072633;28;20193;-77
2021/07/02 02:36:21;;;;;;;21.90;9.20;;;17.90;99.90;;;;;;5072631;28;20413;-77
2021/07/02 02:38:47;;;;;;;20.77;10.90;;;17.90;99.90;;;;;;5072740;28;20174;-77
2021/07/02 02:41:13;;;;;;;21.40;10.30;;;17.90;99.90;;;;;;5072661;28;20787;-77
2021/07/02 02:43:38;;;;;;;17.00;9.67;;;17.90;99.90;;;;;;5071244;28;20463;-77
2021/07/02 02:46:04;;;;;;;24.70;11.70;;;17.90;99.90;;;;;;5072389;28;20179;-77
2021/07/02 02:48:29;;;;;;;25.63;9.30;;;17.90;99.90;;;;;;5072231;28;20173;-77
2021/07/02 02:50:55;;;;;;;19.90;9.63;;;17.80;99.90;;;;;;5070889;28;20494;-77
2021/07/02 02:53:20;;;;;;;22.00;9.40;;;17.90;99.90;;;;;;5072167;28;20205;-76
2021/07/02 02:55:46;;;;;;;18.07;10.20;;;17.90;99.90;;;;;;5070752;28;20181;-76
2021/07/02 02:58:11;;;;;;;27.70;11.37;;;17.90;99.90;;;;;;5071940;28;20549;-76
2021/07/02 03:00:37;;;;;;;15.10;9.20;;;17.90;99.90;;;;;;5070898;28;20179;-77
2021/07/02 03:03:03;;;;;;;14.87;8.80;;;18.00;99.90;;;;;;5071818;28;20201;-77
2021/07/02 03:05:28;;;;;;;18.30;9.63;;;17.90;99.90;;;;;;5070701;28;20555;-77
2021/07/02 03:07:55;;;;;;;14.10;9.43;;;18.00;99.90;;;;;;5072371;28;20261;-77
2021/07/02 03:10:22;;;;;;;19.10;10.10;;;17.90;99.90;;;;;;5072099;28;20536;-77
2021/07/02 03:12:47;;;;;;;15.93;11.00;;;17.90;99.90;;;;;;5071608;28;20428;-76
2021/07/02 03:15:16;;;;;;;18.10;10.43;;;17.90;99.90;;;;;;5070828;28;20522;-77
2021/07/02 03:17:42;;;;;;;14.97;8.73;;;18.00;99.90;;;;;;5071990;28;20177;-78
2021/07/02 03:20:10;;;;;;;17.20;8.70;;;18.00;99.90;;;;;;5070519;28;20505;-76
2021/07/02 03:22:36;;;;;;;18.70;10.30;;;18.00;99.90;;;;;;5071626;28;20511;-77
2021/07/02 03:25:02;;;;;;;21.87;9.47;;;18.00;99.90;;;;;;5071982;28;20448;-78
2021/07/02 03:27:28;;;;;;;15.10;8.80;;;18.00;99.90;;;;;;5071781;28;20426;-77
2021/07/02 03:29:53;;;;;;;15.03;9.53;;;18.00;99.90;;;;;;5072140;28;20496;-77
2021/07/02 03:32:19;;;;;;;13.27;9.63;;;18.00;99.90;;;;;;5071696;28;20197;-77
2021/07/02 03:34:47;;;;;;;11.70;8.07;;;18.10;99.90;;;;;;5071709;28;20183;-78
2021/07/02 03:37:15;;;;;;;19.23;8.77;;;18.10;99.90;;;;;;5053939;28;20178;-77
2021/07/02 03:39:40;;;;;;;14.50;9.63;;;18.10;99.90;;;;;;5071488;28;20416;-77
2021/07/02 03:42:07;;;;;;;16.50;9.50;;;18.10;99.90;;;;;;5070130;28;20460;-78
2021/07/02 03:44:33;;;;;;;15.53;11.27;;;18.20;99.90;;;;;;5072249;28;20204;-77
2021/07/02 03:46:58;;;;;;;18.00;9.90;;;18.20;99.90;;;;;;5070502;28;20409;-77
2021/07/02 03:49:24;;;;;;;13.30;8.77;;;18.20;99.90;;;;;;5072093;28;20178;-78
2021/07/02 03:51:50;;;;;;;16.87;10.03;;;18.20;99.90;;;;;;5073071;28;20263;-80
2021/07/02 03:54:15;;;;;;;12.10;8.80;;;18.20;99.90;;;;;;5055751;28;20720;-80
2021/07/02 03:57:10;;;;;;;12.73;9.23;;;18.20;99.90;;;;;;5073348;28;20267;-80
2021/07/02 03:59:26;;;;;;;13.53;9.00;;;18.20;99.90;;;;;;5073054;28;20189;-79
2021/07/02 04:01:52;;;;;;;14.30;9.30;;;18.20;99.90;;;;;;5072867;28;20413;-79
2021/07/02 04:04:17;;;;;;;12.47;8.17;;;18.20;99.90;;;;;;5072232;28;20199;-77
2021/07/02 04:06:43;;;;;;;10.27;7.83;;;18.20;99.90;;;;;;5072057;28;20176;-79
2021/07/02 04:09:08;;;;;;;10.30;7.80;;;18.20;99.90;;;;;;5074711;28;20574;-77
2021/07/02 04:11:34;;;;;;;13.40;8.40;;;18.20;99.90;;;;;;5075893;28;20255;-78
2021/07/02 04:13:59;;;;;;;16.00;9.07;;;18.30;99.90;;;;;;5076440;28;20211;-78
2021/07/02 04:16:25;;;;;;;11.60;8.57;;;18.30;99.90;;;;;;5074566;28;20301;-78
2021/07/02 04:18:51;;;;;;;12.27;8.00;;;18.30;99.90;;;;;;5057788;28;20185;-78
2021/07/02 04:21:16;;;;;;;11.33;7.60;;;18.30;99.90;;;;;;5056624;28;20185;-78
2021/07/02 04:23:42;;;;;;;11.00;7.37;;;18.40;99.90;;;;;;5074900;28;20215;-78
2021/07/02 04:26:07;;;;;;;8.47;7.00;;;18.30;99.90;;;;;;5075480;28;20317;-78
2021/07/02 04:28:33;;;;;;;14.80;8.83;;;18.40;99.90;;;;;;5076014;28;20643;-78
2021/07/02 04:30:58;;;;;;;12.40;8.73;;;18.40;99.90;;;;;;5074358;28;20270;-78
2021/07/02 04:33:24;;;;;;;11.37;8.10;;;18.40;99.90;;;;;;5074643;28;20671;-79
2021/07/02 04:35:49;;;;;;;12.47;7.30;;;18.50;99.90;;;;;;5076869;28;20187;-79
2021/07/02 04:38:15;;;;;;;14.10;8.67;;;18.50;99.90;;;;;;5075278;28;20655;-79
2021/07/02 04:40:40;;;;;;;11.57;7.30;;;18.50;99.90;;;;;;5075034;28;20179;-79
2021/07/02 04:43:06;;;;;;;11.27;8.37;;;18.50;99.90;;;;;;5075858;28;20687;-79
2021/07/02 04:45:31;;;;;;;11.90;7.50;;;18.50;99.90;;;;;;5075936;28;20187;-78
2021/07/02 04:47:57;;;;;;;16.30;8.23;;;18.40;99.90;;;;;;5075946;28;20646;-78
2021/07/02 04:50:22;;;;;;;9.67;7.70;;;18.40;99.90;;;;;;5068710;28;20180;-78
2021/07/02 04:52:48;;;;;;;10.20;8.07;;;18.40;99.90;;;;;;5069243;28;20220;-78
2021/07/02 04:55:14;;;;;;;9.97;7.03;;;18.40;99.90;;;;;;5074721;28;20175;-79
2021/07/02 04:57:39;;;;;;;12.37;7.27;;;18.40;99.90;;;;;;5072645;28;20672;-78
2021/07/02 05:00:06;;;;;;;11.97;7.23;;;18.40;99.90;;;;;;5069055;28;20586;-79
2021/07/02 05:02:31;;;;;;;12.47;8.23;;;18.40;99.90;;;;;;5075094;28;20224;-79
2021/07/02 05:04:57;;;;;;;11.93;7.33;;;18.30;99.90;;;;;;5076208;28;20463;-79
2021/07/02 05:07:23;;;;;;;12.07;7.77;;;18.30;99.90;;;;;;5075370;28;20536;-77
2021/07/02 05:09:49;;;;;;;10.37;8.20;;;18.30;99.90;;;;;;5074543;28;20595;-78
2021/07/02 05:12:14;;;;;;;15.80;9.10;;;18.40;99.90;;;;;;5073116;28;20444;-78
2021/07/02 05:14:40;;;;;;;10.40;7.70;;;18.40;99.90;;;;;;5074484;28;20220;-77
2021/07/02 05:17:06;;;;;;;8.50;7.03;;;18.40;99.90;;;;;;5074373;28;20171;-77
2021/07/02 05:19:32;;;;;;;11.77;7.50;;;18.40;99.90;;;;;;5073706;28;20210;-78
2021/07/02 05:21:58;;;;;;;14.67;7.83;;;18.50;99.90;;;;;;5052979;28;20233;-78
2021/07/02 05:24:23;;;;;;;9.80;8.43;;;18.50;99.90;;;;;;5054335;28;20427;-79
2021/07/02 05:26:49;;;;;;;13.37;8.00;;;18.50;99.90;;;;;;5054329;28;20192;-78
2021/07/02 05:29:14;;;;;;;10.27;6.87;;;18.50;99.90;;;;;;5050918;28;20267;-77
2021/07/02 05:31:40;;;;;;;8.63;7.07;;;18.50;99.90;;;;;;5067859;28;20177;-79
2021/07/02 05:34:06;;;;;;;15.73;6.93;;;18.60;99.90;;;;;;5076683;28;20199;-78
2021/07/02 05:36:32;;;;;;;14.63;6.37;;;18.50;99.90;;;;;;5075711;28;20644;-79
2021/07/02 05:38:57;;;;;;;10.20;7.23;;;18.60;99.90;;;;;;5076256;28;20419;-80
2021/07/02 05:41:23;;;;;;;12.90;8.40;;;18.60;99.90;;;;;;5077301;28;20193;-79
2021/07/02 05:43:49;;;;;;;10.40;7.53;;;18.70;99.90;;;;;;5080468;28;20235;-79
2021/07/02 05:46:15;;;;;;;11.80;8.43;;;18.90;99.90;;;;;;5067316;28;20204;-80
2021/07/02 05:48:41;;;;;;;13.00;8.23;;;19.00;99.90;;;;;;5057257;28;20989;-80
2021/07/02 05:51:06;;;;;;;9.10;6.53;;;19.10;99.90;;;;;;5058160;28;20195;-79
2021/07/02 05:53:33;;;;;;;11.23;7.70;;;19.10;99.90;;;;;;5076735;28;20199;-78
2021/07/02 05:55:58;;;;;;;9.23;7.60;;;19.10;99.90;;;;;;5075913;28;20180;-80
2021/07/02 05:58:24;;;;;;;11.43;7.33;;;19.10;99.90;;;;;;5077352;28;20415;-79
2021/07/02 06:00:49;;;;;;;9.80;6.80;;;18.80;99.90;;;;;;5080983;28;20191;-78
2021/07/02 06:03:15;;;;;;;13.60;7.90;;;18.90;99.90;;;;;;5096313;28;20268;-79
2021/07/02 06:05:41;;;;;;;10.60;6.50;;;19.10;99.90;;;;;;5086049;28;20249;-79
2021/07/02 06:08:06;;;;;;;9.67;6.33;;;19.00;99.90;;;;;;5090812;28;20663;-79
2021/07/02 06:10:32;;;;;;;10.43;7.70;;;19.00;99.90;;;;;;5083077;28;20184;-79
2021/07/02 06:12:58;;;;;;;12.67;7.80;;;18.90;99.90;;;;;;5076096;28;20265;-79
2021/07/02 06:15:23;;;;;;;8.90;7.07;;;19.00;99.90;;;;;;5083938;28;20555;-80
2021/07/02 06:17:50;;;;;;;8.60;7.63;;;18.80;99.90;;;;;;5084533;28;20188;-79
2021/07/02 06:20:18;;;;;;;10.10;7.67;;;18.90;99.90;;;;;;5066029;28;20172;-80
2021/07/02 06:22:44;;;;;;;9.70;7.73;;;18.80;99.90;;;;;;5080634;28;20463;-80
2021/07/02 06:25:12;;;;;;;12.47;7.77;;;18.90;99.90;;;;;;5081410;28;20849;-80
2021/07/02 06:27:38;;;;;;;13.00;7.87;;;18.90;99.90;;;;;;5091910;28;20588;-80
2021/07/02 06:30:05;;;;;;;8.80;6.93;;;18.90;99.90;;;;;;5076865;28;20475;-78
2021/07/02 06:32:30;;;;;;;12.53;7.93;;;18.90;99.90;;;;;;5074619;28;20414;-79
2021/07/02 06:34:56;;;;;;;13.57;8.57;;;19.00;99.90;;;;;;5089635;28;20439;-78
2021/07/02 06:37:22;;;;;;;9.67;6.97;;;18.90;99.90;;;;;;5052405;28;20183;-79
2021/07/02 06:39:48;;;;;;;9.57;6.40;;;18.80;99.90;;;;;;5069453;28;20179;-78
2021/07/02 06:42:14;;;;;;;9.33;6.70;;;18.90;99.90;;;;;;5078177;28;20515;-78
2021/07/02 06:44:40;;;;;;;10.97;7.33;;;18.90;99.90;;;;;;5072860;28;20844;-78
2021/07/02 06:47:06;;;;;;;9.07;6.93;;;19.00;99.90;;;;;;5091230;28;20449;-78
2021/07/02 06:49:31;;;;;;;8.17;6.60;;;19.10;99.90;;;;;;5095293;28;20167;-78
2021/07/02 06:51:57;;;;;;;9.00;6.40;;;19.10;99.90;;;;;;5081248;28;20433;-78
2021/07/02 06:54:23;;;;;;;10.53;6.87;;;19.30;99.90;;;;;;5079221;28;20184;-79
2021/07/02 06:57:01;;;;;;;9.17;6.80;;;19.40;99.90;;;;;;5081531;28;20183;-78
2021/07/02 06:59:37;;;;;;;12.70;7.83;;;19.50;99.90;;;;;;5073867;28;20531;-78
2021/07/02 07:02:04;;;;;;;10.70;6.10;;;19.60;99.90;;;;;;5075062;28;20590;-79
2021/07/02 07:04:36;;;;;;;7.57;5.77;;;19.70;99.90;;;;;;5074240;28;20439;-80
2021/07/02 07:07:07;;;;;;;8.97;5.90;;;19.80;99.90;;;;;;5085006;28;20458;-81
2021/07/02 07:09:35;;;;;;;9.90;6.07;;;19.80;99.90;;;;;;5082453;28;20440;-80
2021/07/02 07:12:01;;;;;;;8.20;6.23;;;19.80;99.90;;;;;;5304978;22;20500;-75
2021/07/02 07:14:27;;;;;;;6.53;5.03;;;20.10;99.90;;;;;;5073562;28;20484;-78
2021/07/02 07:16:52;;;;;;;8.20;5.50;;;20.40;99.90;;;;;;5072407;28;20440;-78
2021/07/02 07:19:19;;;;;;;7.50;5.67;;;20.30;99.90;;;;;;5072546;28;20206;-77
2021/07/02 07:21:44;;;;;;;9.60;6.80;;;20.10;99.90;;;;;;5072239;28;20274;-79
2021/07/02 07:24:10;;;;;;;8.70;5.97;;;20.00;99.90;;;;;;5071600;28;20418;-77
2021/07/02 07:26:35;;;;;;;11.33;6.60;;;20.30;99.90;;;;;;5071751;28;20175;-78
2021/07/02 07:29:01;;;;;;;7.07;5.33;;;20.40;99.90;;;;;;5050629;28;20176;-78
2021/07/02 07:31:27;;;;;;;7.73;5.70;;;20.20;99.90;;;;;;5071910;28;20278;-76
2021/07/02 07:33:53;;;;;;;6.83;6.10;;;20.30;99.90;;;;;;5072720;28;20175;-77
2021/07/02 07:36:21;;;;;;;8.80;6.50;;;20.60;99.90;;;;;;5071734;28;20171;-78
2021/07/02 07:38:47;;;;;;;8.43;6.07;;;20.60;99.90;;;;;;5069855;28;20429;-79
2021/07/02 07:41:13;;;;;;;8.07;5.50;;;20.70;99.90;;;;;;5071862;28;20446;-78
2021/07/02 07:43:38;;;;;;;8.00;5.10;;;21.30;99.90;;;;;;5072913;28;20206;-77
2021/07/02 07:46:06;;;;;;;8.20;5.90;;;21.60;99.90;;;;;;5074428;28;20187;-77
2021/07/02 07:48:32;;;;;;;7.07;5.60;;;21.70;99.90;;;;;;5082206;28;20178;-77
2021/07/02 07:51:19;;;;;;;8.93;5.70;;;21.70;99.90;;;;;;5084892;28;20430;-79
2021/07/02 07:53:45;;;;;;;6.13;5.20;;;21.50;99.90;;;;;;5072337;28;20726;-77
2021/07/02 07:56:11;;;;;;;8.60;5.20;;;21.60;99.90;;;;;;5072268;28;20518;-78
2021/07/02 07:58:36;;;;;;;8.67;5.60;;;21.60;99.90;;;;;;5068169;28;20176;-79
2021/07/02 08:01:02;;;;;;;5.73;4.20;;;21.70;99.90;;;;;;5066889;28;20229;-78
2021/07/02 08:03:27;;;;;;;4.53;3.90;;;21.70;99.90;;;;;;5082105;28;20208;-78
2021/07/02 08:05:53;;;;;;;4.70;4.00;;;22.10;99.90;;;;;;5077843;28;20190;-78
2021/07/02 08:08:19;;;;;;;5.23;3.77;;;22.20;99.90;;;;;;5073266;28;20172;-77
2021/07/02 08:10:44;;;;;;;6.40;4.80;;;21.80;99.90;;;;;;5073279;28;20176;-76
2021/07/02 08:13:10;;;;;;;6.53;4.10;;;21.50;99.90;;;;;;5068363;28;20662;-76
2021/07/02 08:15:36;;;;;;;7.60;4.80;;;21.60;99.90;;;;;;5064608;28;20662;-79
2021/07/02 08:18:04;;;;;;;7.30;4.90;;;21.60;99.90;;;;;;5073065;28;20221;-77
2021/07/02 08:20:30;;;;;;;5.47;4.00;;;21.60;99.90;;;;;;5071418;28;20179;-79
2021/07/02 08:22:55;;;;;;;6.10;4.47;;;21.60;99.90;;;;;;5071947;28;21011;-78
2021/07/02 08:25:24;;;;;;;6.73;4.60;;;21.30;99.90;;;;;;5071331;28;20604;-76
2021/07/02 08:30:33;;;;;;;5.13;4.03;;;21.30;99.90;;;;;;5070413;28;20470;-77
2021/07/02 08:32:59;;;;;;;6.20;4.80;;;21.30;99.90;;;;;;5071489;28;20539;-77
2021/07/02 08:35:24;;;;;;;5.97;5.07;;;21.40;99.90;;;;;;5073137;28;20267;-78
2021/07/02 08:37:52;;;;;;;9.17;4.93;;;21.60;99.90;;;;;;5075923;28;20634;-77
2021/07/02 08:40:19;;;;;;;7.70;4.93;;;21.80;99.90;;;;;;5070502;28;20551;-77
2021/07/02 08:42:45;;;;;;;7.37;4.70;;;21.70;99.90;;;;;;5069732;28;20464;-78
2021/07/02 08:45:11;;;;;;;6.73;4.60;;;21.90;99.90;;;;;;5070857;28;20402;-77
2021/07/02 08:47:37;;;;;;;6.47;4.63;;;21.50;99.90;;;;;;5069726;28;20782;-78
2021/07/02 08:50:05;;;;;;;6.23;4.90;;;21.60;99.90;;;;;;5071674;28;20271;-77
2021/07/02 08:52:32;;;;;;;12.23;4.67;;;21.70;99.90;;;;;;5071625;28;20219;-76
2021/07/02 08:54:57;;;;;;;6.90;5.30;;;21.40;99.90;;;;;;5073315;28;20424;-77
2021/07/02 08:57:23;;;;;;;7.30;4.90;;;21.30;99.90;;;;;;5075188;28;20406;-78
2021/07/02 08:59:48;;;;;;;7.93;4.97;;;21.30;99.90;;;;;;5073931;28;20670;-77
2021/07/02 09:02:29;;;;;;;5.43;4.57;;;21.30;99.90;;;;;;5073453;28;20204;-77
2021/07/02 09:04:55;;;;;;;9.73;4.77;;;21.30;99.90;;;;;;5075059;28;20180;-78
2021/07/02 09:07:21;;;;;;;9.27;5.43;;;21.20;99.90;;;;;;5074797;28;20447;-77
2021/07/02 09:09:58;;;;;;;7.23;4.83;;;21.20;99.90;;;;;;5074770;28;20410;-76
2021/07/02 09:12:29;;;;;;;5.83;4.60;;;21.40;99.90;;;;;;5073252;28;20215;-77
2021/07/02 09:14:56;;;;;;;6.33;4.73;;;21.60;99.90;;;;;;5073503;28;20935;-77
2021/07/02 09:17:24;;;;;;;6.13;4.53;;;21.70;99.90;;;;;;5073539;28;20467;-76
2021/07/02 09:20:15;;;;;;;8.90;4.40;;;21.90;99.90;;;;;;5073560;28;20421;-77
2021/07/02 09:22:48;;;;;;;5.17;3.97;;;22.00;99.90;;;;;;5076259;28;20488;-75
2021/07/02 09:25:37;;;;;;;6.17;4.93;;;22.20;99.90;;;;;;5078368;28;20417;-76
2021/07/02 09:28:09;;;;;;;6.50;4.73;;;22.20;99.90;;;;;;5080628;28;20450;-76
2021/07/02 09:30:37;;;;;;;6.77;4.70;;;22.20;99.90;;;;;;5074975;28;20442;-76
2021/07/02 09:33:08;;;;;;;5.30;4.23;;;22.00;99.90;;;;;;5073992;28;21068;-77
2021/07/02 09:35:47;;;;;;;7.50;4.50;;;22.10;99.90;;;;;;5074407;28;20414;-78
2021/07/02 09:38:15;;;;;;;5.80;4.40;;;22.00;99.90;;;;;;5057390;28;20509;-76
2021/07/02 09:40:43;;;;;;;9.00;4.30;;;22.00;99.90;;;;;;5074442;28;20482;-76
2021/07/02 09:43:19;;;;;;;6.00;4.67;;;22.00;99.90;;;;;;5073985;28;20449;-77
2021/07/02 09:45:50;;;;;;;7.03;5.07;;;22.10;99.90;;;;;;5074546;28;20414;-76
2021/07/02 09:48:18;;;;;;;6.33;4.67;;;22.20;99.90;;;;;;5073009;28;20422;-77
2021/07/02 09:50:46;;;;;;;5.77;4.23;;;22.40;99.90;;;;;;5074261;28;20773;-77
2021/07/02 09:53:16;;;;;;;7.90;4.30;;;22.70;99.90;;;;;;5073954;28;20543;-76
2021/07/02 09:55:51;;;;;;;4.47;3.93;;;22.80;99.90;;;;;;5074155;28;20455;-76
2021/07/02 09:58:19;;;;;;;3.80;3.13;;;22.90;99.90;;;;;;5073000;28;20420;-76
2021/07/02 10:00:52;;;;;;;6.23;4.53;;;22.90;99.90;;;;;;5074635;28;20406;-77
2021/07/02 10:03:29;;;;;;;11.03;5.27;;;22.70;99.90;;;;;;5072560;28;20462;-76
2021/07/02 10:06:01;;;;;;;5.40;4.23;;;22.70;99.90;;;;;;5074061;28;20410;-77
2021/07/02 10:08:37;;;;;;;6.70;4.70;;;22.70;99.90;;;;;;5073951;28;20405;-77
2021/07/02 10:11:05;;;;;;;6.87;4.57;;;22.80;99.90;;;;;;5073771;28;20402;-76
2021/07/02 10:13:33;;;;;;;7.03;5.60;;;22.50;99.90;;;;;;5072546;28;20418;-77
2021/07/02 10:16:01;;;;;;;5.80;4.27;;;22.50;99.90;;;;;;5073732;28;20454;-78
2021/07/02 10:18:28;;;;;;;8.03;5.03;;;22.60;99.90;;;;;;5073512;28;20421;-76
2021/07/02 10:20:58;;;;;;;6.57;4.63;;;22.80;99.90;;;;;;5073570;28;20410;-77
2021/07/02 10:23:28;;;;;;;5.60;4.30;;;23.00;99.90;;;;;;5073144;28;20454;-77
2021/07/02 10:25:55;;;;;;;7.90;5.77;;;23.10;99.90;;;;;;5073344;28;20406;-77
2021/07/02 10:28:23;;;;;;;6.20;5.40;;;22.90;99.90;;;;;;5073615;28;20461;-76
2021/07/02 10:30:49;;;;;;;8.67;5.87;;;22.80;99.90;;;;;;5073304;28;20402;-76
2021/07/02 10:33:18;;;;;;;7.67;5.20;;;22.70;99.90;;;;;;5072925;28;21173;-78
2021/07/02 10:35:46;;;;;;;6.70;4.90;;;22.60;99.90;;;;;;5072989;28;20418;-77
2021/07/02 10:38:12;;;;;;;5.17;4.20;;;22.70;99.90;;;;;;5073098;28;20512;-76
2021/07/02 10:40:42;;;;;;;5.50;4.70;;;22.80;99.90;;;;;;5071780;28;20951;-76
2021/07/02 10:43:11;;;;;;;5.43;4.70;;;22.70;99.90;;;;;;5079164;28;20295;-78
2021/07/02 10:45:39;;;;;;;5.20;4.13;;;22.80;99.90;;;;;;5073681;28;20511;-78
2021/07/02 10:48:05;;;;;;;8.27;4.30;;;22.90;99.90;;;;;;5073939;28;20406;-78
2021/07/02 10:50:44;;;;;;;5.57;4.33;;;22.90;99.90;;;;;;5073689;28;20741;-78
2021/07/02 10:53:24;;;;;;;6.50;4.50;;;23.00;99.90;;;;;;5072915;28;20966;-78
2021/07/02 10:55:50;;;;;;;5.17;4.30;;;22.90;99.90;;;;;;5072982;28;20813;-78
2021/07/02 10:58:15;;;;;;;14.83;5.70;;;22.80;99.90;;;;;;5073544;28;20406;-79
2021/07/02 11:01:10;;;;;;;8.50;5.80;;;22.80;99.90;;;;;;5074589;28;20410;-78
2021/07/02 11:03:36;;;;;;;10.20;5.07;;;22.90;99.90;;;;;;5071547;28;20203;-78
2021/07/02 11:06:38;;;;;;;10.93;4.73;;;23.00;99.90;;;;;;5075099;28;20561;-78
2021/07/02 11:09:04;;;;;;;5.07;4.53;;;23.00;99.90;;;;;;5073609;28;20410;-78
2021/07/02 11:12:08;;;;;;;6.10;4.83;;;22.90;99.90;;;;;;5073228;28;20481;-77
2021/07/02 11:14:54;;;;;;;5.50;3.43;;;22.70;99.90;;;;;;5073476;28;20492;-78
2021/07/02 11:17:30;;;;;;;4.77;3.83;;;22.90;99.90;;;;;;5075117;28;20405;-77
2021/07/02 11:20:06;;;;;;;6.43;4.47;;;23.00;99.90;;;;;;5073893;28;20410;-78
2021/07/02 11:22:36;;;;;;;5.60;4.00;;;23.00;99.90;;;;;;5072547;28;20454;-78
2021/07/02 11:25:17;;;;;;;6.10;4.07;;;23.00;99.90;;;;;;5073101;28;20403;-78
2021/07/02 11:28:04;;;;;;;4.90;4.37;;;22.80;99.90;;;;;;5073153;28;20845;-78
2021/07/02 11:30:35;;;;;;;5.80;4.20;;;22.90;99.90;;;;;;5074117;28;20402;-78
2021/07/02 11:33:03;;;;;;;4.10;3.70;;;23.20;99.90;;;;;;5072738;28;20434;-77
2021/07/02 11:35:40;;;;;;;6.13;3.97;;;23.30;99.90;;;;;;5073826;28;20514;-79
2021/07/02 11:38:07;;;;;;;5.33;4.43;;;23.40;99.90;;;;;;5075354;28;20425;-78
2021/07/02 11:40:40;;;;;;;4.37;3.87;;;23.30;99.90;;;;;;5063163;28;20430;-78
2021/07/02 11:43:08;;;;;;;5.80;4.43;;;23.40;99.90;;;;;;5072407;28;20453;-78
2021/07/02 11:45:48;;;;;;;5.87;4.17;;;23.40;99.90;;;;;;5072033;28;20410;-79
2021/07/02 11:48:22;;;;;;;7.17;4.27;;;23.30;99.90;;;;;;5071012;28;20967;-78
2021/07/02 11:51:07;;;;;;;7.57;4.70;;;23.40;99.90;;;;;;5072060;28;20402;-78
2021/07/02 11:53:34;;;;;;;9.40;5.40;;;23.40;99.90;;;;;;5073824;28;20446;-78
2021/07/02 11:56:13;;;;;;;8.83;7.10;;;23.30;99.90;;;;;;5073300;28;20438;-78
2021/07/02 11:58:46;;;;;;;6.10;4.53;;;23.40;99.90;;;;;;5073668;28;20426;-79
2021/07/02 12:01:21;;;;;;;6.80;4.70;;;23.70;99.90;;;;;;5073440;28;20426;-78
2021/07/02 12:03:51;;;;;;;6.80;4.40;;;23.60;99.90;;;;;;5072419;28;20979;-79
2021/07/02 12:06:28;;;;;;;6.17;5.10;;;23.50;99.90;;;;;;5073327;28;21037;-78
2021/07/02 12:09:01;;;;;;;7.27;4.43;;;23.50;99.90;;;;;;5073528;28;20475;-78
2021/07/02 12:11:32;;;;;;;8.50;4.70;;;23.50;99.90;;;;;;5074508;28;20445;-79
2021/07/02 12:13:58;;;;;;;7.10;3.80;;;23.60;99.90;;;;;;5072238;28;20951;-78
2021/07/02 12:16:32;;;;;;;5.17;4.00;;;23.70;99.90;;;;;;5071652;28;20410;-78
2021/07/02 12:18:59;;;;;;;8.03;4.30;;;23.60;99.90;;;;;;5072437;28;20440;-78
2021/07/02 12:21:29;;;;;;;5.83;4.20;;;23.60;99.90;;;;;;5071916;28;20452;-78
2021/07/02 12:23:57;;;;;;;7.20;4.63;;;23.60;99.90;;;;;;5073637;28;20516;-78
2021/07/02 12:26:26;;;;;;;6.07;4.10;;;23.70;99.90;;;;;;5073711;28;20429;-78
2021/07/02 12:28:59;;;;;;;5.73;4.70;;;23.80;99.90;;;;;;5076014;28;20421;-79
2021/07/02 12:31:38;;;;;;;5.37;4.03;;;23.90;99.90;;;;;;5080349;28;20426;-79
2021/07/02 12:34:07;;;;;;;4.87;3.83;;;23.90;99.90;;;;;;5061309;28;20422;-78
2021/07/02 12:36:35;;;;;;;4.90;4.00;;;23.90;99.90;;;;;;5075021;28;20467;-79
2021/07/02 12:39:00;;;;;;;4.60;3.87;;;23.80;99.90;;;;;;5075177;28;20476;-78
2021/07/02 12:41:44;;;;;;;6.77;4.37;;;23.90;99.90;;;;;;5076205;28;20699;-78
2021/07/02 12:44:13;;;;;;;5.70;4.10;;;24.10;99.90;;;;;;5075864;28;20229;-79
2021/07/02 12:46:39;;;;;;;4.50;3.90;;;23.90;99.90;;;;;;5078256;28;20402;-78
2021/07/02 12:49:23;;;;;;;4.43;4.03;;;23.70;99.90;;;;;;5077083;28;20490;-79